createdAt,value
2023-04-18T00:03:45.879Z,7.12
2023-04-18T00:08:48.071Z,7.16
2023-04-18T00:13:49.695Z,7.19
2023-04-18T00:18:52.570Z,7.18
2023-04-18T00:23:54.235Z,7.20
2023-04-18T00:28:56.135Z,7.22
2023-04-18T00:33:57.741Z,7.24
2023-04-18T00:38:59.413Z,7.25
2023-04-18T00:44:01.158Z,7.25
2023-04-18T00:49:02.789Z,7.28
2023-04-18T00:54:06.748Z,7.32
2023-04-18T00:59:09.513Z,7.39
2023-04-18T01:04:11.278Z,7.46
2023-04-18T01:09:15.954Z,7.50
2023-04-18T01:14:20.430Z,7.56
2023-04-18T01:19:23.143Z,7.56
2023-04-18T01:24:26.810Z,7.58
2023-04-18T01:29:28.855Z,7.58
2023-04-18T01:34:31.767Z,7.57
2023-04-18T01:39:33.578Z,7.55
2023-04-18T01:44:35.380Z,7.53
2023-04-18T01:49:37.101Z,7.52
2023-04-18T01:54:38.792Z,7.50
2023-04-18T01:59:40.545Z,7.47
2023-04-18T02:04:42.219Z,7.48
2023-04-18T02:09:44.863Z,7.46
2023-04-18T02:14:51.566Z,7.46
2023-04-18T02:19:53.131Z,7.42
2023-04-18T02:24:54.803Z,7.37
2023-04-18T02:29:56.625Z,7.37
2023-04-18T02:34:58.349Z,7.35
2023-04-18T02:40:00.051Z,7.37
2023-04-18T02:45:06.138Z,7.35
2023-04-18T02:50:08.381Z,7.33
2023-04-18T02:55:11.798Z,7.32
2023-04-18T03:00:16.947Z,7.33
2023-04-18T03:05:30.525Z,7.32
2023-04-18T03:10:35.041Z,7.27
2023-04-18T03:15:37.430Z,7.11
2023-04-18T03:20:41.361Z,7.02
2023-04-18T03:25:43.317Z,7.01
2023-04-18T03:30:45.655Z,7.02
2023-04-18T03:35:47.387Z,6.94
2023-04-18T03:40:49.274Z,6.86
2023-04-18T03:45:58.943Z,6.78
2023-04-18T03:51:02.094Z,6.71
2023-04-18T03:56:05.917Z,6.71
2023-04-18T04:01:27.868Z,6.68
2023-04-18T04:06:29.950Z,6.62
2023-04-18T04:11:31.641Z,6.52
2023-04-18T04:16:33.863Z,6.48
2023-04-18T04:21:36.530Z,6.46
2023-04-18T04:26:40.219Z,6.48
2023-04-18T04:31:47.202Z,6.46
2023-04-18T04:36:54.778Z,6.36
2023-04-18T04:41:58.140Z,6.34
2023-04-18T04:47:04.592Z,6.30
2023-04-18T04:52:10.960Z,6.27
2023-04-18T04:57:12.903Z,6.30
2023-04-18T05:02:15.151Z,6.29
2023-04-18T05:07:16.934Z,6.31
2023-04-18T05:12:18.616Z,6.31
2023-04-18T05:17:20.304Z,6.28
2023-04-18T05:22:21.976Z,6.31
2023-04-18T05:27:23.874Z,6.25
2023-04-18T05:32:25.593Z,6.20
2023-04-18T05:37:27.365Z,6.20
2023-04-18T05:42:28.988Z,6.23
2023-04-18T05:47:30.784Z,6.27
2023-04-18T05:52:32.557Z,6.29
2023-04-18T05:57:34.260Z,6.18
2023-04-18T06:02:44.678Z,6.14
2023-04-18T06:07:50.403Z,6.13
2023-04-18T06:12:52.069Z,6.06
2023-04-18T06:18:05.644Z,5.99
2023-04-18T06:23:27.201Z,5.97
2023-04-18T06:28:29.102Z,5.98
2023-04-18T06:33:31.227Z,5.95
2023-04-18T06:38:33.463Z,5.95
2023-04-18T06:43:36.158Z,6.04
2023-04-18T06:48:37.773Z,6.00
2023-04-18T06:53:39.732Z,6.08
2023-04-18T06:58:41.358Z,6.14
2023-04-18T07:03:43.145Z,6.17
2023-04-18T07:08:45.070Z,6.14
2023-04-18T07:13:48.725Z,6.11
2023-04-18T07:18:51.763Z,6.11
2023-04-18T07:23:53.487Z,6.11
2023-04-18T07:28:55.169Z,6.11
2023-04-18T07:33:57.405Z,6.08
2023-04-18T07:38:59.031Z,6.11
2023-04-18T07:44:03.988Z,6.12
2023-04-18T07:49:06.143Z,6.16
2023-04-18T07:54:08.307Z,6.22
2023-04-18T07:59:09.927Z,6.28
2023-04-18T08:04:12.015Z,6.27
2023-04-18T08:09:14.144Z,6.32
2023-04-18T08:14:16.182Z,6.47
2023-04-18T08:19:17.886Z,6.55
2023-04-18T08:24:19.606Z,6.52
2023-04-18T08:29:21.220Z,6.61
2023-04-18T08:34:23.523Z,6.62
2023-04-18T08:39:25.440Z,6.82
2023-04-18T08:44:30.635Z,6.95
2023-04-18T08:49:32.327Z,6.95
2023-04-18T08:54:34.535Z,6.87
2023-04-18T08:59:36.321Z,6.92
2023-04-18T09:04:39.846Z,6.99
2023-04-18T09:09:51.520Z,7.12
2023-04-18T09:14:57.965Z,7.12
2023-04-18T09:20:01.196Z,7.12
2023-04-18T09:25:02.882Z,7.01
2023-04-18T09:30:05.608Z,7.05
2023-04-18T09:35:07.598Z,6.92
2023-04-18T09:40:19.161Z,6.85
2023-04-18T09:45:21.654Z,6.85
2023-04-18T09:50:23.390Z,6.87
2023-04-18T09:55:25.300Z,6.86
2023-04-18T10:00:28.209Z,6.87
2023-04-18T10:05:34.965Z,6.90
2023-04-18T10:10:38.574Z,6.94
2023-04-18T10:15:42.388Z,7.04
2023-04-18T10:20:46.941Z,7.11
2023-04-18T10:25:49.410Z,7.15
2023-04-18T10:30:53.131Z,7.17
2023-04-18T10:36:17.312Z,7.14
2023-04-18T10:41:22.253Z,7.15
2023-04-18T10:46:31.831Z,7.19
2023-04-18T10:51:34.366Z,7.20
2023-04-18T10:56:36.868Z,7.25
2023-04-18T11:01:41.069Z,7.28
2023-04-18T11:06:56.074Z,7.32
2023-04-18T11:12:06.518Z,7.32
2023-04-18T11:17:28.764Z,7.38
2023-04-18T11:22:31.111Z,7.41
2023-04-18T11:27:32.767Z,7.43
2023-04-18T11:32:35.460Z,7.53
2023-04-18T11:37:38.715Z,7.62
2023-04-18T11:42:41.049Z,7.65
2023-04-18T11:47:46.214Z,7.66
2023-04-18T11:52:50.894Z,7.69
2023-04-18T11:57:57.442Z,7.74
2023-04-18T12:02:59.891Z,7.78
2023-04-18T12:08:20.453Z,7.79
2023-04-18T12:13:27.104Z,7.78
2023-04-18T12:18:29.934Z,7.79
2023-04-18T12:23:38.931Z,7.82
2023-04-18T12:28:45.003Z,7.85
2023-04-18T12:33:46.608Z,7.87
2023-04-18T12:38:49.202Z,7.84
2023-04-18T12:43:51.032Z,7.91
2023-04-18T12:48:52.649Z,7.93
2023-04-18T12:53:54.594Z,7.94
2023-04-18T12:58:56.400Z,7.97
2023-04-18T13:04:10.902Z,7.97
2023-04-18T13:09:14.023Z,7.99
2023-04-18T13:14:16.192Z,7.99
2023-04-18T13:19:17.826Z,7.99
2023-04-18T13:24:19.483Z,8.01
2023-04-18T13:29:21.134Z,8.04
2023-04-18T13:34:22.812Z,8.11
2023-04-18T13:39:24.890Z,8.16
2023-04-18T13:44:26.780Z,8.19
2023-04-18T13:49:28.605Z,8.20
2023-04-18T13:54:32.172Z,8.27
2023-04-18T13:59:34.099Z,8.32
2023-04-18T14:04:36.625Z,8.38
2023-04-18T14:09:38.323Z,8.43
2023-04-18T14:14:39.948Z,8.42
2023-04-18T14:19:41.629Z,8.47
2023-04-18T14:24:43.304Z,8.53
2023-04-18T14:29:44.923Z,8.58
2023-04-18T14:34:46.571Z,8.62
2023-04-18T14:39:48.674Z,8.66
2023-04-18T14:44:50.277Z,8.66
2023-04-18T14:49:51.868Z,8.66
2023-04-18T14:54:53.488Z,8.65
2023-04-18T14:59:55.125Z,8.71
2023-04-18T15:04:56.820Z,8.77
2023-04-18T15:09:58.595Z,8.81
2023-04-18T15:15:00.552Z,8.77
2023-04-18T15:20:02.214Z,8.75
2023-04-18T15:25:05.132Z,8.78
2023-04-18T15:30:08.271Z,8.77
2023-04-18T15:35:10.601Z,8.75
2023-04-18T15:40:16.412Z,8.75
2023-04-18T15:45:18.564Z,8.78
2023-04-18T15:50:20.516Z,8.79
2023-04-18T15:55:22.160Z,8.82
2023-04-18T16:00:23.848Z,8.83
2023-04-18T16:05:25.520Z,8.84
2023-04-18T16:10:27.128Z,8.83
2023-04-18T16:15:30.856Z,8.81
2023-04-18T16:20:33.472Z,8.81
2023-04-18T16:25:35.318Z,8.82
2023-04-18T16:30:37.584Z,8.84
2023-04-18T16:35:40.144Z,8.85
2023-04-18T16:40:41.892Z,8.83
2023-04-18T16:45:43.639Z,8.81
2023-04-18T16:50:45.787Z,8.82
2023-04-18T16:55:47.469Z,8.82
2023-04-18T17:00:49.431Z,8.81
2023-04-18T17:05:51.080Z,8.82
2023-04-18T17:10:52.904Z,8.85
2023-04-18T17:15:54.697Z,8.89
2023-04-18T17:20:56.481Z,8.90
2023-04-18T17:25:58.111Z,8.91
2023-04-18T17:31:01.395Z,8.91
2023-04-18T17:36:06.297Z,8.92
2023-04-18T17:41:08.079Z,8.90
2023-04-18T17:46:09.752Z,8.90
2023-04-18T17:51:11.495Z,8.90
2023-04-18T17:56:13.324Z,8.89
2023-04-18T18:01:16.176Z,8.90
2023-04-18T18:06:17.853Z,8.88
2023-04-18T18:11:19.596Z,8.90
2023-04-18T18:16:22.774Z,8.88
2023-04-18T18:21:24.530Z,8.87
2023-04-18T18:26:26.596Z,8.87
2023-04-18T18:31:28.298Z,8.87
2023-04-18T18:36:31.456Z,8.85
2023-04-18T18:41:33.084Z,8.83
2023-04-18T18:46:35.407Z,8.80
2023-04-18T18:51:37.197Z,8.79
2023-04-18T18:56:39.999Z,8.79
2023-04-18T19:01:41.924Z,8.81
2023-04-18T19:06:43.630Z,8.81
2023-04-18T19:11:45.304Z,8.80
2023-04-18T19:16:46.914Z,8.81
2023-04-18T19:21:48.537Z,8.82
2023-04-18T19:26:50.193Z,8.83
2023-04-18T19:31:51.949Z,8.84
2023-04-18T19:36:53.644Z,8.87
2023-04-18T19:41:55.290Z,8.91
2023-04-18T19:47:01.688Z,8.94
2023-04-18T19:52:03.410Z,8.97
2023-04-18T19:57:06.310Z,8.97
2023-04-18T20:02:12.763Z,9.00
2023-04-18T20:07:21.753Z,9.04
2023-04-18T20:12:24.405Z,9.05
2023-04-18T20:17:34.451Z,9.06
2023-04-18T20:22:41.848Z,9.08
2023-04-18T20:27:54.418Z,9.09
2023-04-18T20:32:58.978Z,9.10
2023-04-18T20:38:09.201Z,9.10
2023-04-18T20:43:11.233Z,9.10
2023-04-18T20:48:12.889Z,9.09
2023-04-18T20:53:18.821Z,9.08
2023-04-18T20:58:20.719Z,9.07
2023-04-18T21:03:26.814Z,9.06
2023-04-18T21:08:31.752Z,9.05
2023-04-18T21:13:36.896Z,9.04
2023-04-18T21:18:40.456Z,9.04
2023-04-18T21:23:43.181Z,9.05
2023-04-18T21:29:03.325Z,9.02
2023-04-18T21:34:05.444Z,9.02
2023-04-18T21:39:08.312Z,9.00
2023-04-18T21:44:13.956Z,9.00
2023-04-18T21:49:16.045Z,8.99
2023-04-18T21:54:17.790Z,8.97
2023-04-18T21:59:19.414Z,8.97
2023-04-18T22:04:24.121Z,8.94
2023-04-18T22:09:25.980Z,8.93
2023-04-18T22:14:28.294Z,8.91
2023-04-18T22:19:31.284Z,8.90
2023-04-18T22:24:32.930Z,8.88
2023-04-18T22:29:34.525Z,8.85
2023-04-18T22:34:36.154Z,8.84
2023-04-18T22:39:37.774Z,8.81
2023-04-18T22:44:39.440Z,8.79
2023-04-18T22:49:42.021Z,8.77
2023-04-18T22:54:43.674Z,8.75
2023-04-18T22:59:45.410Z,8.76
2023-04-18T23:04:47.435Z,8.76
2023-04-18T23:09:49.151Z,8.76
2023-04-18T23:14:50.799Z,8.76
2023-04-18T23:19:52.476Z,8.76
2023-04-18T23:24:55.116Z,8.76
2023-04-18T23:29:56.735Z,8.78
2023-04-18T23:34:58.440Z,8.80
2023-04-18T23:40:00.548Z,8.78
2023-04-18T23:45:03.964Z,8.70
2023-04-18T23:50:06.069Z,8.67
2023-04-18T23:55:08.093Z,8.62
